Time;durP1;ratioP1;P1;durP2;ratioP2;P2;SDS_P1;SDS_P2;PMS_P1;PMS_P2;Temp;Humidity;BMP_temperature;BMP_pressure;BME280_temperature;BME280_humidity;BME280_pressure;Samples;Min_cycle;Max_cycle;Signal;HPM_P1;HPM_P2
2021/08/29 00:02:15;;;;;;;7.93;5.43;;;14.60;99.90;;;;;;5134223;27;20283;-63
2021/08/29 00:04:41;;;;;;;6.40;5.00;;;14.60;99.90;;;;;;5134288;27;20275;-64
2021/08/29 00:07:06;;;;;;;7.95;4.93;;;14.60;99.90;;;;;;5133910;27;20027;-63
2021/08/29 00:09:32;;;;;;;8.73;5.30;;;14.60;99.90;;;;;;5133945;27;20019;-63
2021/08/29 00:11:57;;;;;;;10.13;5.47;;;14.60;99.90;;;;;;5134244;27;20479;-63
2021/08/29 00:14:23;;;;;;;9.03;4.70;;;14.60;99.90;;;;;;5132828;27;20117;-63
2021/08/29 00:16:49;;;;;;;9.90;5.00;;;14.60;99.90;;;;;;5134059;27;20737;-63
2021/08/29 00:19:14;;;;;;;6.30;4.50;;;14.60;99.90;;;;;;5133878;27;20745;-63
2021/08/29 00:21:40;;;;;;;6.03;4.50;;;14.60;99.90;;;;;;5133745;27;20035;-63
2021/08/29 00:24:05;;;;;;;7.57;4.90;;;14.60;99.90;;;;;;5134005;27;20269;-63
2021/08/29 00:26:31;;;;;;;7.10;4.53;;;14.70;99.90;;;;;;5133560;27;20039;-63
2021/08/29 00:28:56;;;;;;;9.60;4.63;;;14.70;99.90;;;;;;5134303;28;20356;-63
2021/08/29 00:31:22;;;;;;;8.52;4.82;;;14.60;99.90;;;;;;5134767;28;20019;-63
2021/08/29 00:33:48;;;;;;;6.63;4.80;;;14.60;99.90;;;;;;5134175;28;20035;-63
2021/08/29 00:36:13;;;;;;;9.27;4.80;;;14.60;99.90;;;;;;5134100;28;20015;-63
2021/08/29 00:38:39;;;;;;;6.22;4.70;;;14.50;99.90;;;;;;5133720;28;20035;-63
2021/08/29 00:41:11;;;;;;;6.63;4.40;;;14.50;99.90;;;;;;5133649;28;20027;-63
2021/08/29 00:43:41;;;;;;;6.82;4.75;;;14.50;99.90;;;;;;5133593;28;20392;-63
2021/08/29 00:46:08;;;;;;;10.55;5.38;;;14.50;99.90;;;;;;5133549;28;20026;-63
2021/08/29 00:48:34;;;;;;;9.63;5.28;;;14.40;99.90;;;;;;5133427;28;20022;-63
2021/08/29 00:50:59;;;;;;;8.38;5.57;;;14.40;99.90;;;;;;5133579;28;20019;-64
2021/08/29 00:53:25;;;;;;;9.97;5.43;;;14.40;99.90;;;;;;5133995;28;20034;-64
2021/08/29 00:55:51;;;;;;;8.80;5.50;;;14.30;99.90;;;;;;5134118;28;20432;-63
2021/08/29 00:58:18;;;;;;;9.57;5.72;;;14.30;99.90;;;;;;5133714;28;20384;-63
2021/08/29 01:00:45;;;;;;;7.82;5.40;;;14.20;99.90;;;;;;5133508;28;20039;-63
2021/08/29 01:03:23;;;;;;;10.10;6.78;;;14.20;99.90;;;;;;5134163;28;20023;-65
2021/08/29 01:06:19;;;;;;;9.85;5.95;;;14.20;99.90;;;;;;5135100;28;20032;-62
2021/08/29 01:08:52;;;;;;;8.50;5.75;;;14.20;99.90;;;;;;5133497;27;20034;-63
2021/08/29 01:11:23;;;;;;;9.63;6.43;;;14.10;99.90;;;;;;5132326;28;20023;-63
2021/08/29 01:13:50;;;;;;;13.27;7.50;;;14.20;99.90;;;;;;5133778;28;20486;-64
2021/08/29 01:16:19;;;;;;;10.65;7.25;;;14.20;99.90;;;;;;5133695;28;20028;-62
2021/08/29 01:18:51;;;;;;;12.75;7.28;;;14.10;99.90;;;;;;5133209;28;20431;-65
2021/08/29 01:21:20;;;;;;;13.48;7.15;;;14.10;99.90;;;;;;5133547;28;20019;-65
2021/08/29 01:23:51;;;;;;;8.25;6.72;;;14.10;99.90;;;;;;5133489;28;20114;-64
2021/08/29 01:26:32;;;;;;;8.77;6.25;;;14.10;99.90;;;;;;5133588;28;20518;-64
2021/08/29 01:29:04;;;;;;;9.52;6.45;;;14.10;99.90;;;;;;5131710;28;20027;-63
2021/08/29 01:31:32;;;;;;;8.73;6.93;;;14.10;99.90;;;;;;5133574;28;20102;-65
2021/08/29 01:34:01;;;;;;;9.60;6.57;;;14.10;99.90;;;;;;5133646;27;20023;-63
2021/08/29 01:36:29;;;;;;;10.80;6.97;;;14.00;99.90;;;;;;5137007;27;20447;-63
2021/08/29 01:38:55;;;;;;;9.82;6.75;;;14.00;99.90;;;;;;5138162;27;20488;-63
2021/08/29 01:41:23;;;;;;;9.35;6.63;;;14.00;99.90;;;;;;5138021;27;20030;-63
2021/08/29 01:43:50;;;;;;;9.95;6.97;;;13.90;99.90;;;;;;5137367;27;20027;-63
2021/08/29 01:46:18;;;;;;;10.13;7.57;;;14.00;99.90;;;;;;5136763;27;20077;-63
2021/08/29 01:48:45;;;;;;;10.07;6.95;;;14.00;99.90;;;;;;5137213;27;20050;-63
2021/08/29 01:51:10;;;;;;;;;;;14.00;99.90;;;;;;5136982;27;20024;-63
2021/08/29 01:53:37;;;;;;;8.95;6.47;;;14.10;99.90;;;;;;5136917;27;20356;-63
2021/08/29 01:56:04;;;;;;;9.63;7.57;;;14.10;99.90;;;;;;5137100;27;20059;-63
2021/08/29 01:58:30;;;;;;;9.85;7.07;;;14.10;99.90;;;;;;5136495;27;20336;-63
2021/08/29 02:01:02;;;;;;;10.20;6.77;;;14.00;99.90;;;;;;5136673;27;20463;-63
2021/08/29 02:03:29;;;;;;;9.02;6.85;;;14.00;99.90;;;;;;5136799;27;20030;-63
2021/08/29 02:06:03;;;;;;;12.88;6.72;;;14.00;99.90;;;;;;5136501;27;20038;-64
2021/08/29 02:08:30;;;;;;;10.73;7.38;;;14.00;99.90;;;;;;5137162;27;20516;-63
2021/08/29 02:10:58;;;;;;;10.70;7.30;;;14.00;99.90;;;;;;5136489;27;20377;-63
2021/08/29 02:13:26;;;;;;;9.93;7.78;;;14.00;99.90;;;;;;5136336;27;20022;-63
2021/08/29 02:15:58;;;;;;;11.73;7.32;;;13.90;99.90;;;;;;5136278;27;20030;-63
2021/08/29 02:18:25;;;;;;;8.95;6.40;;;14.00;99.90;;;;;;5136329;27;20038;-63
2021/08/29 02:20:51;;;;;;;12.05;7.60;;;13.90;99.90;;;;;;5136049;27;20031;-63
2021/08/29 02:23:17;;;;;;;;;;;13.90;99.90;;;;;;5136904;27;20026;-63
2021/08/29 02:25:47;;;;;;;10.18;7.30;;;13.90;99.90;;;;;;5136014;27;20423;-63
2021/08/29 02:28:14;;;;;;;10.85;7.50;;;14.00;99.90;;;;;;5135502;27;20121;-63
2021/08/29 02:30:40;;;;;;;;;;;14.00;99.90;;;;;;5136273;27;20041;-63
2021/08/29 02:33:06;;;;;;;12.18;8.55;;;14.00;99.90;;;;;;5135909;27;20351;-63
2021/08/29 02:35:32;;;;;;;12.75;8.13;;;14.00;99.90;;;;;;5135704;27;20047;-63
2021/08/29 02:37:59;;;;;;;9.25;7.60;;;14.00;99.90;;;;;;5135688;27;20030;-63
2021/08/29 02:40:28;;;;;;;11.55;8.27;;;14.00;99.90;;;;;;5135859;27;20074;-63
2021/08/29 02:42:54;;;;;;;12.52;8.20;;;14.00;99.90;;;;;;5135829;27;20046;-63
2021/08/29 02:45:20;;;;;;;14.57;10.20;;;14.00;99.90;;;;;;5136555;27;20383;-63
2021/08/29 02:47:46;;;;;;;15.95;10.88;;;14.00;99.90;;;;;;5135974;27;20495;-63
2021/08/29 02:50:12;;;;;;;;;;;13.90;99.90;;;;;;5136251;27;20029;-63
2021/08/29 02:52:39;;;;;;;21.73;11.20;;;13.90;99.90;;;;;;5135529;27;19903;-63
2021/08/29 02:55:04;;;;;;;;;;;13.90;99.90;;;;;;5135886;27;20182;-63
2021/08/29 02:57:34;;;;;;;17.42;11.48;;;13.90;99.90;;;;;;5135331;27;19974;-63
2021/08/29 03:00:00;;;;;;;22.40;11.93;;;13.90;99.90;;;;;;5135691;27;20050;-65
2021/08/29 03:02:26;;;;;;;20.10;11.77;;;13.90;99.90;;;;;;5135463;27;20475;-63
2021/08/29 03:04:52;;;;;;;18.35;12.38;;;13.90;99.90;;;;;;5135022;27;20433;-63
2021/08/29 03:07:17;;;;;;;18.35;12.65;;;13.90;99.90;;;;;;5134015;27;20076;-63
2021/08/29 03:09:43;;;;;;;20.35;13.50;;;13.90;99.90;;;;;;5135101;27;20564;-63
2021/08/29 03:12:11;;;;;;;18.70;12.70;;;13.90;99.90;;;;;;5135197;27;20015;-64
2021/08/29 03:14:38;;;;;;;22.67;14.10;;;13.90;99.90;;;;;;5133569;27;20026;-63
2021/08/29 03:17:05;;;;;;;22.15;14.23;;;13.90;99.90;;;;;;5135443;27;20396;-64
2021/08/29 03:19:32;;;;;;;20.75;13.43;;;13.90;99.90;;;;;;5134854;27;20027;-64
2021/08/29 03:21:58;;;;;;;20.73;13.38;;;13.90;99.90;;;;;;5134831;27;20483;-64
2021/08/29 03:24:24;;;;;;;23.17;14.73;;;14.00;99.90;;;;;;5134729;27;20060;-64
2021/08/29 03:26:50;;;;;;;21.98;13.80;;;14.10;99.90;;;;;;5134233;27;20039;-63
2021/08/29 03:29:17;;;;;;;20.13;12.77;;;14.10;99.90;;;;;;5134635;27;20050;-63
2021/08/29 03:31:43;;;;;;;18.00;11.35;;;14.10;99.90;;;;;;5134544;27;20027;-63
2021/08/29 03:34:13;;;;;;;17.35;11.70;;;14.10;99.90;;;;;;5134883;27;20026;-63
2021/08/29 03:36:43;;;;;;;21.13;13.30;;;14.20;99.90;;;;;;5134704;27;20106;-62
2021/08/29 03:39:11;;;;;;;20.88;12.57;;;14.20;99.90;;;;;;5134970;27;20353;-63
2021/08/29 03:41:39;;;;;;;18.75;11.50;;;14.20;99.90;;;;;;5134909;27;20023;-62
2021/08/29 03:44:10;;;;;;;20.95;12.48;;;14.10;99.90;;;;;;5134476;27;20168;-63
2021/08/29 03:46:36;;;;;;;18.75;12.13;;;14.10;99.90;;;;;;5132989;27;20026;-63
2021/08/29 03:49:03;;;;;;;17.98;11.88;;;14.10;99.90;;;;;;5134146;27;20022;-63
2021/08/29 03:51:30;;;;;;;19.48;12.68;;;14.10;99.90;;;;;;5134230;27;20072;-63
2021/08/29 03:53:56;;;;;;;13.73;10.27;;;14.20;99.90;;;;;;5134473;27;20019;-62
2021/08/29 03:56:22;;;;;;;13.60;10.48;;;14.30;99.90;;;;;;5132836;27;20348;-62
2021/08/29 03:58:48;;;;;;;14.88;9.93;;;14.30;99.90;;;;;;5134475;27;20042;-62
2021/08/29 04:01:14;;;;;;;14.85;9.95;;;14.20;99.90;;;;;;5134238;27;20019;-62
2021/08/29 04:03:39;;;;;;;15.95;10.00;;;14.20;99.90;;;;;;5134445;27;20038;-62
2021/08/29 04:06:08;;;;;;;15.13;9.90;;;14.20;99.90;;;;;;5134352;27;20452;-63
2021/08/29 04:08:38;;;;;;;13.98;9.75;;;14.20;99.90;;;;;;5133951;27;20034;-62
2021/08/29 04:11:05;;;;;;;16.30;11.48;;;14.30;99.90;;;;;;5134278;27;20029;-62
2021/08/29 04:13:31;;;;;;;14.40;10.32;;;14.30;99.90;;;;;;5133781;27;20494;-62
2021/08/29 04:16:01;;;;;;;14.18;9.73;;;14.30;99.90;;;;;;5134015;27;20019;-62
2021/08/29 04:18:28;;;;;;;14.95;10.15;;;14.30;99.90;;;;;;5133905;27;20050;-63
2021/08/29 04:20:53;;;;;;;12.07;8.73;;;14.30;99.90;;;;;;5133848;27;20030;-62
2021/08/29 04:23:19;;;;;;;14.57;9.02;;;14.30;99.90;;;;;;5134174;27;20495;-62
2021/08/29 04:25:45;;;;;;;12.05;7.88;;;14.30;99.90;;;;;;5133705;28;20384;-63
2021/08/29 04:28:11;;;;;;;10.40;7.82;;;14.30;99.90;;;;;;5133483;27;20031;-62
2021/08/29 04:30:37;;;;;;;11.07;7.38;;;14.50;99.90;;;;;;5133822;28;20019;-62
2021/08/29 04:33:03;;;;;;;9.10;7.47;;;14.50;99.90;;;;;;5133954;28;20026;-62
2021/08/29 04:35:28;;;;;;;10.18;8.05;;;14.50;99.90;;;;;;5133798;28;20019;-62
2021/08/29 04:37:56;;;;;;;8.37;6.90;;;14.60;99.90;;;;;;5133734;28;20468;-62
2021/08/29 04:40:22;;;;;;;8.93;6.78;;;14.50;99.90;;;;;;5133649;28;20020;-62
2021/08/29 04:42:47;;;;;;;9.47;6.47;;;14.60;99.90;;;;;;5133808;28;20387;-63
2021/08/29 04:45:13;;;;;;;8.20;6.67;;;14.50;99.90;;;;;;5133782;28;20260;-63
2021/08/29 04:47:38;;;;;;;9.10;6.10;;;14.60;99.90;;;;;;5133455;28;20787;-63
2021/08/29 04:50:05;;;;;;;9.60;6.57;;;14.60;99.90;;;;;;5133784;28;20023;-64
2021/08/29 04:52:31;;;;;;;;;;;14.60;99.90;;;;;;5134024;28;20027;-64
2021/08/29 04:54:56;;;;;;;8.32;6.00;;;14.60;99.90;;;;;;5133853;27;20295;-62
2021/08/29 04:57:22;;;;;;;8.13;6.25;;;14.60;99.90;;;;;;5133905;28;20072;-64
2021/08/29 04:59:48;;;;;;;9.27;6.32;;;14.60;99.90;;;;;;5133493;28;20088;-64
2021/08/29 05:02:14;;;;;;;8.35;6.68;;;14.50;99.90;;;;;;5133604;28;20102;-64
2021/08/29 05:04:39;;;;;;;8.85;6.78;;;14.60;99.90;;;;;;5133522;28;20441;-62
2021/08/29 05:07:05;;;;;;;9.50;7.47;;;14.50;99.90;;;;;;5133577;28;20049;-63
2021/08/29 05:09:31;;;;;;;9.05;6.55;;;14.50;99.90;;;;;;5134655;27;20060;-63
2021/08/29 05:11:57;;;;;;;10.50;7.50;;;14.50;99.90;;;;;;5136782;27;20491;-63
2021/08/29 05:14:22;;;;;;;8.60;6.78;;;14.60;99.90;;;;;;5137433;27;20105;-63
2021/08/29 05:16:48;;;;;;;11.37;7.83;;;14.50;99.90;;;;;;5135909;27;20042;-63
2021/08/29 05:19:14;;;;;;;9.20;6.90;;;14.50;99.90;;;;;;5137308;27;20268;-64
2021/08/29 05:21:39;;;;;;;12.27;8.53;;;14.50;99.90;;;;;;5137630;27;20784;-63
2021/08/29 05:24:05;;;;;;;10.43;7.65;;;14.60;99.90;;;;;;5137097;27;20037;-63
2021/08/29 05:26:31;;;;;;;10.85;7.30;;;14.60;99.90;;;;;;5136939;27;20073;-63
2021/08/29 05:28:57;;;;;;;11.02;6.85;;;14.60;99.90;;;;;;5137298;27;20023;-63
2021/08/29 05:31:22;;;;;;;9.20;7.53;;;14.60;99.90;;;;;;5137575;27;20023;-63
2021/08/29 05:33:48;;;;;;;11.07;7.93;;;14.60;99.90;;;;;;5137600;27;20275;-63
2021/08/29 05:36:13;;;;;;;9.10;6.80;;;14.60;99.90;;;;;;5137902;27;20023;-63
2021/08/29 05:38:39;;;;;;;9.07;6.93;;;14.60;99.90;;;;;;5136697;27;20479;-63
2021/08/29 05:41:05;;;;;;;8.13;6.03;;;14.60;99.90;;;;;;5136923;27;20257;-64
2021/08/29 05:43:31;;;;;;;7.72;6.57;;;14.70;99.90;;;;;;5137317;27;20047;-64
2021/08/29 05:45:56;;;;;;;9.57;6.32;;;14.70;99.90;;;;;;5135265;27;20035;-64
2021/08/29 05:48:22;;;;;;;7.22;5.07;;;14.80;99.90;;;;;;5137003;27;20106;-64
2021/08/29 05:50:47;;;;;;;6.07;5.38;;;14.80;99.90;;;;;;5136606;27;20038;-64
2021/08/29 05:53:13;;;;;;;9.02;7.05;;;14.80;99.90;;;;;;5137080;27;20015;-64
2021/08/29 05:55:39;;;;;;;6.30;5.40;;;14.80;99.90;;;;;;5136525;27;20023;-64
2021/08/29 05:58:04;;;;;;;8.65;6.05;;;14.90;99.90;;;;;;5136374;27;20023;-64
2021/08/29 06:00:30;;;;;;;7.70;5.90;;;14.80;99.90;;;;;;5136560;27;20118;-64
2021/08/29 06:02:55;;;;;;;8.57;6.27;;;14.90;99.90;;;;;;5136292;27;20480;-64
2021/08/29 06:05:21;;;;;;;8.50;6.17;;;14.90;99.90;;;;;;5136682;27;20272;-64
2021/08/29 06:07:47;;;;;;;6.40;5.40;;;14.90;99.90;;;;;;5136067;27;20047;-64
2021/08/29 06:10:13;;;;;;;5.23;4.00;;;14.90;99.90;;;;;;5136372;27;20543;-64
2021/08/29 06:12:39;;;;;;;5.88;4.20;;;15.00;99.90;;;;;;5136614;27;20248;-64
2021/08/29 06:15:06;;;;;;;5.70;3.92;;;14.90;99.90;;;;;;5136464;27;20023;-64
2021/08/29 06:17:31;;;;;;;;;;;15.00;99.90;;;;;;5136416;27;20103;-64
2021/08/29 06:19:57;;;;;;;4.20;3.38;;;15.10;99.90;;;;;;5136092;27;20376;-64
2021/08/29 06:22:23;;;;;;;3.40;2.70;;;15.10;99.90;;;;;;5136396;27;20459;-64
2021/08/29 06:24:48;;;;;;;4.32;3.38;;;15.20;99.90;;;;;;5135939;27;20253;-64
2021/08/29 06:27:14;;;;;;;4.50;2.60;;;15.20;99.90;;;;;;5135652;27;20042;-64
2021/08/29 06:29:39;;;;;;;4.43;3.00;;;15.20;99.90;;;;;;5135911;27;20034;-64
2021/08/29 06:32:06;;;;;;;21.15;3.22;;;15.20;99.90;;;;;;5136231;27;20110;-64
2021/08/29 06:34:31;;;;;;;3.83;2.92;;;15.20;99.90;;;;;;5135760;27;20176;-64
2021/08/29 06:36:57;;;;;;;3.67;3.10;;;15.30;99.90;;;;;;5135746;27;20132;-64
2021/08/29 06:39:22;;;;;;;4.00;3.13;;;15.30;99.90;;;;;;5135945;27;20065;-65
2021/08/29 06:41:48;;;;;;;3.67;3.10;;;15.40;99.90;;;;;;5135792;27;20299;-64
2021/08/29 06:44:14;;;;;;;7.15;3.00;;;15.30;99.90;;;;;;5136295;27;20305;-64
2021/08/29 06:46:39;;;;;;;3.92;2.90;;;15.40;99.90;;;;;;5135579;27;20031;-63
2021/08/29 06:49:05;;;;;;;4.38;3.42;;;15.40;99.90;;;;;;5135377;27;20490;-63
2021/08/29 06:51:31;;;;;;;6.57;3.17;;;15.40;99.90;;;;;;5135375;27;20598;-66
2021/08/29 06:53:56;;;;;;;4.72;3.25;;;15.50;99.90;;;;;;5134472;27;20031;-65
2021/08/29 06:56:22;;;;;;;4.32;3.38;;;15.50;99.90;;;;;;5135269;27;20387;-66
2021/08/29 06:58:47;;;;;;;5.53;3.30;;;15.50;99.90;;;;;;5135523;27;20467;-65
2021/08/29 07:01:13;;;;;;;3.33;2.50;;;15.50;99.90;;;;;;5135281;27;20028;-65
2021/08/29 07:03:38;;;;;;;3.08;2.20;;;15.50;99.90;;;;;;5135185;27;20068;-65
2021/08/29 07:06:06;;;;;;;1.97;1.70;;;15.50;99.90;;;;;;5133948;27;20035;-65
2021/08/29 07:08:32;;;;;;;4.00;2.25;;;15.60;99.90;;;;;;5134963;27;20015;-66
2021/08/29 07:10:57;;;;;;;4.35;2.17;;;15.60;99.90;;;;;;5135110;27;20072;-66
2021/08/29 07:13:23;;;;;;;3.78;2.28;;;15.60;99.90;;;;;;5135225;27;20498;-66
2021/08/29 07:15:49;;;;;;;3.35;2.47;;;15.70;99.90;;;;;;5135038;27;20012;-66
2021/08/29 07:18:14;;;;;;;3.60;2.70;;;15.70;99.90;;;;;;5134898;27;20031;-66
2021/08/29 07:20:40;;;;;;;3.47;2.40;;;15.60;99.90;;;;;;5134979;27;20027;-66
2021/08/29 07:23:05;;;;;;;3.47;2.97;;;15.50;99.90;;;;;;5134868;27;20264;-66
2021/08/29 07:25:31;;;;;;;2.75;2.20;;;15.50;99.90;;;;;;5134751;27;20340;-66
2021/08/29 07:27:57;;;;;;;2.95;2.30;;;15.60;99.90;;;;;;5134520;27;20509;-65
2021/08/29 07:30:22;;;;;;;3.70;2.45;;;15.50;99.90;;;;;;5134638;27;20034;-65
2021/08/29 07:32:48;;;;;;;2.92;2.58;;;15.60;99.90;;;;;;5134023;27;20072;-66
2021/08/29 07:35:13;;;;;;;5.40;3.67;;;15.60;99.90;;;;;;5134889;27;20020;-66
2021/08/29 07:37:39;;;;;;;3.03;2.50;;;15.60;99.90;;;;;;5134532;27;20181;-66
2021/08/29 07:40:05;;;;;;;3.50;2.80;;;15.60;99.90;;;;;;5133217;27;20543;-65
2021/08/29 07:42:31;;;;;;;;;;;15.60;99.90;;;;;;5135166;27;20092;-66
2021/08/29 07:44:56;;;;;;;3.15;2.85;;;15.70;99.90;;;;;;5134710;27;19907;-66
2021/08/29 07:47:22;;;;;;;4.43;3.28;;;15.80;99.90;;;;;;5134026;27;20037;-66
2021/08/29 07:49:48;;;;;;;3.65;2.67;;;15.80;99.90;;;;;;5134410;27;20025;-67
2021/08/29 07:52:13;;;;;;;3.83;3.05;;;15.80;99.90;;;;;;5134801;27;20027;-66
2021/08/29 07:54:39;;;;;;;3.75;2.60;;;15.80;99.90;;;;;;5134623;27;20042;-67
2021/08/29 07:57:05;;;;;;;4.45;2.47;;;15.80;99.90;;;;;;5134426;27;20023;-69
2021/08/29 07:59:30;;;;;;;3.28;2.58;;;15.80;99.90;;;;;;5134343;27;20112;-66
2021/08/29 08:01:56;;;;;;;3.22;2.38;;;15.80;99.90;;;;;;5134067;27;20380;-67
2021/08/29 08:04:21;;;;;;;3.83;2.40;;;15.80;99.90;;;;;;5134647;27;20079;-68
2021/08/29 08:06:47;;;;;;;4.13;2.93;;;15.80;99.90;;;;;;5133816;27;20690;-67
2021/08/29 08:09:12;;;;;;;4.57;3.10;;;15.80;99.90;;;;;;5134057;27;20253;-66
2021/08/29 08:11:38;;;;;;;3.15;2.38;;;15.90;99.90;;;;;;5134042;27;20110;-65
2021/08/29 08:14:05;;;;;;;3.30;2.00;;;16.00;99.90;;;;;;5132522;27;20026;-67
2021/08/29 08:16:31;;;;;;;2.47;2.00;;;16.00;99.90;;;;;;5134004;27;20019;-67
2021/08/29 08:18:57;;;;;;;3.75;2.30;;;16.00;99.90;;;;;;5134000;27;20029;-67
2021/08/29 08:21:22;;;;;;;5.20;1.83;;;16.10;99.90;;;;;;5133895;27;20031;-66
2021/08/29 08:23:48;;;;;;;3.65;1.70;;;16.10;99.90;;;;;;5134097;27;20098;-66
2021/08/29 08:26:14;;;;;;;2.80;1.50;;;16.10;99.90;;;;;;5133764;27;20046;-67
2021/08/29 08:28:39;;;;;;;3.05;1.73;;;16.20;99.90;;;;;;5134075;27;20084;-66
2021/08/29 08:31:05;;;;;;;2.60;1.60;;;16.20;99.90;;;;;;5133917;28;20030;-66
2021/08/29 08:33:30;;;;;;;1.70;1.60;;;16.30;99.90;;;;;;5133724;28;20383;-66
2021/08/29 08:35:56;;;;;;;2.50;1.70;;;16.30;99.90;;;;;;5133968;28;20019;-66
2021/08/29 08:38:22;;;;;;;1.98;1.80;;;16.40;99.90;;;;;;5132313;28;20110;-66
2021/08/29 08:40:47;;;;;;;3.70;1.55;;;16.50;99.90;;;;;;5133864;28;20110;-66
2021/08/29 08:43:13;;;;;;;1.70;1.55;;;16.50;99.90;;;;;;5134762;27;20023;-66
2021/08/29 08:45:39;;;;;;;2.33;1.40;;;16.70;99.90;;;;;;5138347;27;20023;-65
2021/08/29 08:48:06;;;;;;;3.35;1.50;;;16.70;99.90;;;;;;5137711;27;20043;-64
2021/08/29 08:50:34;;;;;;;2.75;1.50;;;16.80;99.90;;;;;;5137733;27;20383;-64
2021/08/29 08:53:03;;;;;;;1.98;1.67;;;16.80;99.90;;;;;;5138200;27;20407;-64
2021/08/29 08:55:30;;;;;;;1.73;1.40;;;16.80;99.90;;;;;;5137902;27;20019;-64
2021/08/29 08:57:56;;;;;;;2.17;1.70;;;16.90;99.90;;;;;;5137493;27;20020;-64
2021/08/29 09:00:24;;;;;;;2.60;1.60;;;16.90;99.90;;;;;;5137583;27;20026;-64
2021/08/29 09:02:50;;;;;;;2.88;1.80;;;16.90;99.90;;;;;;5137689;27;20035;-66
2021/08/29 09:05:15;;;;;;;2.17;1.67;;;16.90;99.90;;;;;;5137314;27;20030;-64
2021/08/29 09:07:41;;;;;;;1.98;1.48;;;17.00;99.90;;;;;;5137227;27;20391;-64
2021/08/29 09:10:07;;;;;;;1.60;1.25;;;16.90;99.90;;;;;;5137930;27;20019;-64
2021/08/29 09:12:33;;;;;;;;;;;17.00;99.90;;;;;;5137960;27;20382;-64
2021/08/29 09:14:58;;;;;;;2.33;1.80;;;17.20;99.90;;;;;;5137648;27;19904;-64
2021/08/29 09:17:31;;;;;;;2.35;1.55;;;17.30;99.90;;;;;;5137116;27;20073;-63
2021/08/29 09:20:18;;;;;;;1.75;1.60;;;17.40;99.90;;;;;;5137530;27;20027;-63
2021/08/29 09:22:46;;;;;;;2.55;1.88;;;17.50;99.90;;;;;;5135630;27;20110;-63
2021/08/29 09:25:12;;;;;;;2.20;1.73;;;17.60;99.90;;;;;;5137053;27;20478;-65
2021/08/29 09:27:43;;;;;;;3.05;1.85;;;17.60;99.90;;;;;;5136537;27;20035;-64
2021/08/29 09:30:10;;;;;;;1.90;1.60;;;17.60;99.90;;;;;;5137008;27;20073;-64
2021/08/29 09:32:49;;;;;;;2.15;1.58;;;17.60;99.90;;;;;;5136844;27;20019;-64
2021/08/29 09:35:15;;;;;;;1.75;1.50;;;17.50;99.90;;;;;;5137667;27;20102;-64
2021/08/29 09:37:40;;;;;;;2.72;1.65;;;17.60;99.90;;;;;;5137497;27;20050;-64
2021/08/29 09:40:19;;;;;;;1.98;1.77;;;17.70;99.90;;;;;;5138501;27;20039;-64
2021/08/29 09:42:45;;;;;;;2.35;1.90;;;17.80;99.90;;;;;;5137085;27;20046;-63
2021/08/29 09:45:42;;;;;;;2.83;1.70;;;17.80;99.90;;;;;;5135264;27;20495;-63
2021/08/29 09:48:13;;;;;;;2.50;2.30;;;17.80;99.90;;;;;;5123188;27;20131;-65
2021/08/29 09:50:41;;;;;;;3.67;2.00;;;17.90;99.90;;;;;;5136962;27;20070;-64
2021/08/29 09:53:13;;;;;;;3.28;2.00;;;17.80;99.90;;;;;;5136484;27;20581;-66
2021/08/29 09:55:46;;;;;;;2.40;2.20;;;17.70;99.90;;;;;;5136040;27;20023;-64
2021/08/29 09:58:24;;;;;;;4.20;1.98;;;17.70;99.90;;;;;;5137090;27;20034;-64
2021/08/29 10:01:13;;;;;;;3.15;2.28;;;17.60;99.90;;;;;;5135088;27;20095;-64
2021/08/29 10:03:45;;;;;;;3.20;2.38;;;17.50;99.90;;;;;;5125535;27;20118;-64
2021/08/29 10:06:16;;;;;;;3.55;2.20;;;17.40;99.90;;;;;;5135366;27;20031;-64
2021/08/29 10:08:44;;;;;;;2.85;2.40;;;17.40;99.90;;;;;;5136759;27;20035;-65
2021/08/29 10:11:11;;;;;;;2.83;2.30;;;17.40;99.90;;;;;;5136497;27;20027;-65
2021/08/29 10:13:38;;;;;;;6.65;3.25;;;17.40;99.90;;;;;;5136694;27;20043;-64
2021/08/29 10:16:05;;;;;;;4.13;2.60;;;17.40;99.90;;;;;;5137020;27;20033;-65
2021/08/29 10:18:34;;;;;;;3.03;2.78;;;17.20;99.90;;;;;;5136444;27;20042;-64
2021/08/29 10:21:01;;;;;;;3.75;3.15;;;17.10;99.90;;;;;;5136815;27;20080;-65
2021/08/29 10:23:26;;;;;;;;;;;16.90;99.90;;;;;;5137983;27;20035;-63
2021/08/29 10:25:56;;;;;;;2.90;2.63;;;16.80;99.90;;;;;;5136195;27;19909;-64
2021/08/29 10:28:25;;;;;;;3.40;3.10;;;16.80;99.90;;;;;;5136353;27;20110;-63
2021/08/29 10:30:55;;;;;;;5.88;3.30;;;16.80;99.90;;;;;;5136164;27;20053;-64
2021/08/29 10:33:22;;;;;;;3.30;3.00;;;16.70;99.90;;;;;;5135826;27;20043;-64
2021/08/29 10:35:49;;;;;;;5.28;3.75;;;16.70;99.90;;;;;;5134606;27;20019;-64
2021/08/29 10:38:17;;;;;;;5.43;3.38;;;16.70;99.90;;;;;;5135838;27;20078;-64
2021/08/29 10:40:43;;;;;;;4.45;3.28;;;16.70;99.90;;;;;;5135727;27;20114;-64
2021/08/29 10:43:09;;;;;;;4.45;3.40;;;16.70;99.90;;;;;;5134601;27;20487;-65
2021/08/29 10:45:34;;;;;;;5.40;3.85;;;16.70;99.90;;;;;;5135563;27;20042;-65
2021/08/29 10:48:01;;;;;;;4.68;3.60;;;16.60;99.90;;;;;;5135599;27;20039;-63
2021/08/29 10:50:27;;;;;;;5.20;3.85;;;16.60;99.90;;;;;;5136078;27;20110;-64
2021/08/29 10:52:53;;;;;;;5.32;3.67;;;16.70;99.90;;;;;;5135649;27;20027;-63
2021/08/29 10:55:19;;;;;;;4.40;4.00;;;16.60;99.90;;;;;;5133996;27;20031;-63
2021/08/29 10:57:47;;;;;;;4.40;3.95;;;16.70;99.90;;;;;;5135514;27;20434;-65
2021/08/29 11:00:27;;;;;;;5.03;3.95;;;16.70;99.90;;;;;;5135630;27;20185;-65
2021/08/29 11:02:53;;;;;;;4.82;4.22;;;16.90;99.90;;;;;;5135833;27;20465;-65
2021/08/29 11:05:28;;;;;;;5.80;4.15;;;16.80;99.90;;;;;;5135593;27;20031;-64
2021/08/29 11:07:55;;;;;;;5.20;4.55;;;16.60;99.90;;;;;;5133906;27;20072;-63
2021/08/29 11:10:40;;;;;;;5.63;4.43;;;16.40;99.90;;;;;;5135080;27;20023;-63
2021/08/29 11:13:27;;;;;;;7.00;4.38;;;16.30;99.90;;;;;;5134976;27;20608;-63
2021/08/29 11:16:14;;;;;;;;;;;16.30;99.90;;;;;;5135761;27;20387;-63
2021/08/29 11:19:01;;;;;;;4.78;4.20;;;16.20;99.90;;;;;;5135180;27;19924;-62
2021/08/29 11:21:36;;;;;;;6.93;4.70;;;16.10;99.90;;;;;;5134308;27;20023;-61
2021/08/29 11:24:05;;;;;;;8.43;7.05;;;16.10;99.90;;;;;;5134724;27;20019;-62
2021/08/29 11:26:35;;;;;;;7.85;5.55;;;16.20;99.90;;;;;;5134923;27;20031;-62
2021/08/29 11:29:21;;;;;;;7.15;5.25;;;16.20;99.90;;;;;;5134943;27;20023;-61
2021/08/29 11:31:53;;;;;;;8.38;5.40;;;16.20;99.90;;;;;;5134625;27;20095;-62
2021/08/29 11:34:20;;;;;;;9.25;5.65;;;16.30;99.90;;;;;;5134838;27;20380;-63
2021/08/29 11:36:46;;;;;;;5.97;5.18;;;16.30;99.90;;;;;;5134442;27;20429;-63
2021/08/29 11:39:34;;;;;;;6.55;5.25;;;16.40;99.90;;;;;;5134563;27;20030;-63
2021/08/29 11:42:13;;;;;;;8.90;6.10;;;16.40;99.90;;;;;;5133213;27;20055;-62
2021/08/29 11:44:39;;;;;;;8.23;6.15;;;16.40;99.90;;;;;;5134556;27;20054;-63
2021/08/29 11:47:06;;;;;;;6.93;5.95;;;16.40;99.90;;;;;;5133024;27;20055;-63
2021/08/29 11:49:32;;;;;;;7.32;6.20;;;16.40;99.90;;;;;;5134712;27;20484;-64
2021/08/29 11:51:58;;;;;;;9.73;6.13;;;16.40;99.90;;;;;;5134318;27;20100;-61
2021/08/29 11:54:23;;;;;;;8.65;6.70;;;16.40;99.90;;;;;;5134619;27;20077;-61
2021/08/29 11:56:49;;;;;;;9.40;6.20;;;16.50;99.90;;;;;;5134098;27;20561;-64
2021/08/29 11:59:27;;;;;;;8.60;7.03;;;16.50;99.90;;;;;;5134001;27;20472;-62
2021/08/29 12:01:57;;;;;;;8.25;6.60;;;16.60;99.90;;;;;;5133185;27;20100;-62
2021/08/29 12:04:23;;;;;;;8.23;6.35;;;16.50;99.90;;;;;;5133301;27;20029;-62
2021/08/29 12:06:52;;;;;;;8.75;6.57;;;16.50;99.90;;;;;;5134067;27;20490;-62
2021/08/29 12:09:22;;;;;;;8.77;6.35;;;16.50;99.90;;;;;;5134647;27;20478;-62
2021/08/29 12:11:51;;;;;;;7.13;6.00;;;16.60;99.90;;;;;;5134242;27;20064;-62
2021/08/29 12:14:22;;;;;;;9.43;6.55;;;16.60;99.90;;;;;;5133769;27;20080;-62
2021/08/29 12:17:03;;;;;;;7.15;5.85;;;16.60;99.90;;;;;;5133795;27;20027;-62
2021/08/29 12:19:35;;;;;;;9.82;6.93;;;16.60;99.90;;;;;;5133825;27;20011;-63
2021/08/29 12:22:03;;;;;;;10.70;7.30;;;16.70;99.90;;;;;;5133950;27;20101;-61
2021/08/29 12:24:34;;;;;;;7.70;6.50;;;16.70;99.90;;;;;;5133818;27;20026;-62
2021/08/29 12:27:01;;;;;;;11.38;8.77;;;16.70;99.90;;;;;;5132983;27;20509;-62
2021/08/29 12:29:29;;;;;;;8.43;6.75;;;16.60;99.90;;;;;;5133656;27;20043;-61
2021/08/29 12:32:05;;;;;;;8.80;7.35;;;16.60;99.90;;;;;;5133568;28;20020;-60
2021/08/29 12:34:31;;;;;;;9.98;6.53;;;16.60;99.90;;;;;;5136042;28;20429;-61
2021/08/29 12:37:04;;;;;;;7.65;6.60;;;16.60;99.90;;;;;;5133970;28;20019;-59
2021/08/29 12:39:30;;;;;;;8.88;6.68;;;16.60;99.90;;;;;;5133478;28;20019;-60
2021/08/29 12:42:13;;;;;;;10.07;7.03;;;16.60;99.90;;;;;;5133360;28;20115;-59
2021/08/29 12:44:39;;;;;;;9.52;6.90;;;16.60;99.90;;;;;;5133541;28;20025;-61
2021/08/29 12:47:05;;;;;;;8.13;6.27;;;16.60;99.90;;;;;;5133781;28;20031;-61
2021/08/29 12:49:31;;;;;;;8.70;6.40;;;16.50;99.90;;;;;;5133328;28;20694;-61